sensor_id;sensor_type;location;lat;lon;timestamp;P1;durP1;ratioP1;P2;durP2;ratioP2
65053;SDS011;51639;47.828;35.038;2023-09-19T00:04:14;17.20;;;9.07;;
65053;SDS011;51639;47.828;35.038;2023-09-19T00:19:16;16.55;;;9.15;;
65053;SDS011;51639;47.828;35.038;2023-09-19T00:34:18;18.88;;;10.77;;
65053;SDS011;51639;47.828;35.038;2023-09-19T00:49:22;42.27;;;14.83;;
65053;SDS011;51639;47.828;35.038;2023-09-19T01:04:24;42.28;;;16.02;;
65053;SDS011;51639;47.828;35.038;2023-09-19T01:35:14;47.72;;;20.80;;
65053;SDS011;51639;47.828;35.038;2023-09-19T02:05:47;60.88;;;20.05;;
65053;SDS011;51639;47.828;35.038;2023-09-19T02:20:55;60.17;;;19.48;;
65053;SDS011;51639;47.828;35.038;2023-09-19T02:35:57;53.53;;;18.85;;
65053;SDS011;51639;47.828;35.038;2023-09-19T02:51:00;37.75;;;15.77;;
65053;SDS011;51639;47.828;35.038;2023-09-19T03:06:03;33.40;;;14.73;;
65053;SDS011;51639;47.828;35.038;2023-09-19T03:21:05;32.35;;;14.25;;
65053;SDS011;51639;47.828;35.038;2023-09-19T03:36:08;28.70;;;13.68;;
65053;SDS011;51639;47.828;35.038;2023-09-19T03:51:10;21.10;;;11.55;;
65053;SDS011;51639;47.828;35.038;2023-09-19T04:06:14;28.90;;;13.52;;
65053;SDS011;51639;47.828;35.038;2023-09-19T04:21:17;22.17;;;9.93;;
65053;SDS011;51639;47.828;35.038;2023-09-19T04:36:21;22.47;;;9.70;;
65053;SDS011;51639;47.828;35.038;2023-09-19T04:51:36;21.58;;;10.63;;
65053;SDS011;51639;47.828;35.038;2023-09-19T05:06:38;17.98;;;9.90;;
65053;SDS011;51639;47.828;35.038;2023-09-19T05:21:40;23.08;;;11.30;;
65053;SDS011;51639;47.828;35.038;2023-09-19T05:36:42;18.38;;;10.25;;
65053;SDS011;51639;47.828;35.038;2023-09-19T05:51:44;20.38;;;10.75;;
65053;SDS011;51639;47.828;35.038;2023-09-19T06:06:47;18.23;;;9.70;;
65053;SDS011;51639;47.828;35.038;2023-09-19T06:36:52;20.20;;;10.23;;
65053;SDS011;51639;47.828;35.038;2023-09-19T06:51:54;16.13;;;9.60;;
65053;SDS011;51639;47.828;35.038;2023-09-19T07:06:57;16.88;;;8.10;;
65053;SDS011;51639;47.828;35.038;2023-09-19T07:21:59;10.10;;;5.30;;
65053;SDS011;51639;47.828;35.038;2023-09-19T07:37:04;8.35;;;5.88;;
65053;SDS011;51639;47.828;35.038;2023-09-19T07:52:06;10.23;;;4.82;;
65053;SDS011;51639;47.828;35.038;2023-09-19T08:07:09;7.30;;;4.40;;
65053;SDS011;51639;47.828;35.038;2023-09-19T08:22:10;6.32;;;4.15;;
65053;SDS011;51639;47.828;35.038;2023-09-19T08:37:12;4.88;;;3.33;;
65053;SDS011;51639;47.828;35.038;2023-09-19T08:52:16;4.68;;;3.80;;
65053;SDS011;51639;47.828;35.038;2023-09-19T09:07:24;19.80;;;11.32;;
65053;SDS011;51639;47.828;35.038;2023-09-19T09:22:26;6.10;;;4.00;;
65053;SDS011;51639;47.828;35.038;2023-09-19T09:37:28;8.63;;;5.13;;
65053;SDS011;51639;47.828;35.038;2023-09-19T09:52:43;8.85;;;4.85;;
65053;SDS011;51639;47.828;35.038;2023-09-19T10:07:46;6.47;;;4.45;;
65053;SDS011;51639;47.828;35.038;2023-09-19T10:22:52;9.75;;;5.63;;
65053;SDS011;51639;47.828;35.038;2023-09-19T10:37:59;11.18;;;5.22;;
65053;SDS011;51639;47.828;35.038;2023-09-19T10:53:04;7.25;;;4.03;;
65053;SDS011;51639;47.828;35.038;2023-09-19T11:08:10;9.40;;;4.10;;
65053;SDS011;51639;47.828;35.038;2023-09-19T11:38:20;5.03;;;2.78;;
65053;SDS011;51639;47.828;35.038;2023-09-19T11:53:49;3.88;;;2.95;;
65053;SDS011;51639;47.828;35.038;2023-09-19T12:08:55;5.70;;;3.03;;
65053;SDS011;51639;47.828;35.038;2023-09-19T12:39:06;5.82;;;3.88;;
65053;SDS011;51639;47.828;35.038;2023-09-19T12:54:10;6.88;;;3.47;;
65053;SDS011;51639;47.828;35.038;2023-09-19T13:09:13;4.88;;;3.25;;
65053;SDS011;51639;47.828;35.038;2023-09-19T13:39:27;13.03;;;6.53;;
65053;SDS011;51639;47.828;35.038;2023-09-19T13:54:31;7.25;;;3.90;;
65053;SDS011;51639;47.828;35.038;2023-09-19T14:09:36;8.15;;;4.07;;
65053;SDS011;51639;47.828;35.038;2023-09-19T14:24:38;6.75;;;3.45;;
65053;SDS011;51639;47.828;35.038;2023-09-19T14:39:42;5.95;;;3.97;;
65053;SDS011;51639;47.828;35.038;2023-09-19T14:54:50;4.80;;;3.85;;
65053;SDS011;51639;47.828;35.038;2023-09-19T15:09:52;8.70;;;4.68;;
65053;SDS011;51639;47.828;35.038;2023-09-19T15:54:59;5.25;;;3.75;;
65053;SDS011;51639;47.828;35.038;2023-09-19T16:10:04;11.27;;;4.50;;
65053;SDS011;51639;47.828;35.038;2023-09-19T16:25:07;10.00;;;4.47;;
65053;SDS011;51639;47.828;35.038;2023-09-19T16:40:13;9.95;;;7.15;;
65053;SDS011;51639;47.828;35.038;2023-09-19T16:55:15;13.03;;;5.70;;
65053;SDS011;51639;47.828;35.038;2023-09-19T17:10:20;7.47;;;4.50;;
65053;SDS011;51639;47.828;35.038;2023-09-19T17:25:33;13.43;;;4.47;;
65053;SDS011;51639;47.828;35.038;2023-09-19T17:40:42;7.50;;;4.47;;
65053;SDS011;51639;47.828;35.038;2023-09-19T17:55:44;6.93;;;4.25;;
65053;SDS011;51639;47.828;35.038;2023-09-19T18:10:48;6.00;;;4.38;;
65053;SDS011;51639;47.828;35.038;2023-09-19T18:25:55;8.70;;;4.67;;
65053;SDS011;51639;47.828;35.038;2023-09-19T18:41:00;9.00;;;3.83;;
65053;SDS011;51639;47.828;35.038;2023-09-19T18:56:06;7.57;;;4.13;;
65053;SDS011;51639;47.828;35.038;2023-09-19T19:11:10;10.70;;;6.07;;
65053;SDS011;51639;47.828;35.038;2023-09-19T19:26:16;20.27;;;13.13;;
65053;SDS011;51639;47.828;35.038;2023-09-19T19:41:18;14.03;;;7.90;;
65053;SDS011;51639;47.828;35.038;2023-09-19T19:56:21;10.05;;;6.40;;
65053;SDS011;51639;47.828;35.038;2023-09-19T20:11:23;15.30;;;7.80;;
65053;SDS011;51639;47.828;35.038;2023-09-19T20:26:32;8.85;;;6.43;;
65053;SDS011;51639;47.828;35.038;2023-09-19T20:41:36;11.27;;;7.10;;
65053;SDS011;51639;47.828;35.038;2023-09-19T20:56:38;11.02;;;6.82;;
65053;SDS011;51639;47.828;35.038;2023-09-19T21:11:40;16.35;;;8.70;;
65053;SDS011;51639;47.828;35.038;2023-09-19T21:26:43;20.75;;;10.15;;
65053;SDS011;51639;47.828;35.038;2023-09-19T21:41:46;18.85;;;9.20;;
65053;SDS011;51639;47.828;35.038;2023-09-19T21:56:49;22.05;;;11.73;;
65053;SDS011;51639;47.828;35.038;2023-09-19T22:11:50;21.58;;;11.55;;
65053;SDS011;51639;47.828;35.038;2023-09-19T22:26:53;17.48;;;12.13;;
65053;SDS011;51639;47.828;35.038;2023-09-19T22:41:55;25.23;;;13.63;;
65053;SDS011;51639;47.828;35.038;2023-09-19T22:57:13;23.40;;;15.23;;
65053;SDS011;51639;47.828;35.038;2023-09-19T23:12:15;26.42;;;17.00;;
65053;SDS011;51639;47.828;35.038;2023-09-19T23:27:21;25.58;;;17.90;;
65053;SDS011;51639;47.828;35.038;2023-09-19T23:42:28;29.77;;;17.60;;
65053;SDS011;51639;47.828;35.038;2023-09-19T23:57:30;26.47;;;14.67;;
